Time;durP1;ratioP1;P1;durP2;ratioP2;P2;SDS_P1;SDS_P2;PMS_P1;PMS_P2;Temp;Humidity;BMP_temperature;BMP_pressure;BME280_temperature;BME280_humidity;BME280_pressure;Samples;Min_cycle;Max_cycle;Signal;HPM_P1;HPM_P2
2022/09/13 00:00:36;;;;;;;3.10;1.42;;;;;;;22.60;95.24;100066.69;5013117;28;20033;-82
2022/09/13 00:03:02;;;;;;;3.42;1.58;;;;;;;22.18;99.09;100062.94;5013154;28;20093;-82
2022/09/13 00:05:28;;;;;;;7.07;2.00;;;;;;;22.35;97.02;100060.88;5012772;28;20498;-82
2022/09/13 00:07:54;;;;;;;4.25;1.70;;;;;;;22.25;98.22;100060.34;5012818;28;20037;-82
2022/09/13 00:10:21;;;;;;;5.55;1.25;;;;;;;22.51;96.66;100059.81;5012371;28;20393;-82
2022/09/13 00:12:49;;;;;;;7.55;2.05;;;;;;;22.46;97.64;100049.69;5011598;28;20025;-82
2022/09/13 00:15:15;;;;;;;6.07;2.92;;;;;;;22.60;97.14;100041.78;5012741;28;20111;-82
2022/09/13 00:17:41;;;;;;;10.30;2.80;;;;;;;22.74;96.81;100044.38;5012624;28;20032;-81
2022/09/13 00:20:07;;;;;;;7.10;3.38;;;;;;;22.81;96.89;100039.09;5012552;28;20030;-82
2022/09/13 00:22:33;;;;;;;7.93;3.67;;;;;;;22.83;97.19;100037.06;5012687;28;20022;-82
2022/09/13 00:24:58;;;;;;;8.75;4.38;;;;;;;22.91;96.90;100031.56;5012033;28;20037;-82
2022/09/13 00:27:23;;;;;;;9.52;4.60;;;;;;;23.01;97.69;100036.56;5006500;28;20041;-82
2022/09/13 00:29:48;;;;;;;8.82;4.93;;;;;;;22.87;98.37;100041.00;5012581;28;20120;-82
2022/09/13 00:32:14;;;;;;;13.93;5.68;;;;;;;22.96;98.68;100036.31;5012317;28;20053;-82
2022/09/13 00:34:39;;;;;;;6.45;5.55;;;;;;;22.95;99.14;100037.34;5012426;28;20488;-82
2022/09/13 00:37:05;;;;;;;9.65;5.40;;;;;;;23.07;98.18;100041.19;5012347;28;20030;-82
2022/09/13 00:39:30;;;;;;;10.68;6.05;;;;;;;23.09;98.34;100043.66;5011180;28;20104;-82
2022/09/13 00:41:55;;;;;;;11.20;6.18;;;;;;;23.06;99.09;100041.38;5011325;28;20033;-82
2022/09/13 00:44:46;;;;;;;11.15;6.28;;;;;;;22.84;100.00;100030.66;5012253;28;20484;-82
2022/09/13 00:47:13;;;;;;;11.50;5.47;;;;;;;22.89;100.00;100024.75;5012261;28;20030;-82
2022/09/13 00:49:41;;;;;;;10.65;5.80;;;;;;;22.99;100.00;100019.88;5007938;28;20080;-82
2022/09/13 00:52:12;;;;;;;11.02;6.75;;;;;;;22.96;100.00;100026.44;5012337;28;20448;-82
2022/09/13 00:54:54;;;;;;;9.40;6.28;;;;;;;23.06;100.00;100019.94;5011558;28;20092;-82
2022/09/13 00:57:21;;;;;;;8.98;6.20;;;;;;;22.84;100.00;100014.59;4998421;28;20034;-82
2022/09/13 01:00:12;;;;;;;13.00;6.00;;;;;;;22.88;100.00;100026.56;4992281;28;20034;-82
2022/09/13 01:02:42;;;;;;;16.75;8.00;;;;;;;22.78;100.00;100018.88;4992477;28;20026;-82
2022/09/13 01:05:08;;;;;;;10.77;7.28;;;;;;;22.90;100.00;100019.19;4992593;28;20004;-82
2022/09/13 01:07:34;;;;;;;10.27;7.60;;;;;;;22.62;100.00;100015.66;4996069;28;20469;-82
2022/09/13 01:10:02;;;;;;;12.40;7.80;;;;;;;22.52;100.00;100008.78;5011760;28;20057;-82
2022/09/13 01:12:39;;;;;;;10.13;6.82;;;;;;;22.67;100.00;100016.75;4994856;28;20030;-83
2022/09/13 01:15:06;;;;;;;10.02;6.60;;;;;;;22.44;100.00;100010.78;4992506;28;20026;-82
2022/09/13 01:17:32;;;;;;;12.13;6.35;;;;;;;22.42;100.00;100018.97;4992006;28;20026;-82
2022/09/13 01:19:59;;;;;;;8.57;5.95;;;;;;;22.34;100.00;100025.28;4992196;28;20543;-82
2022/09/13 01:22:52;;;;;;;11.00;5.82;;;;;;;22.33;100.00;100017.44;4996606;28;20026;-82
2022/09/13 01:25:44;;;;;;;10.00;5.60;;;;;;;22.30;100.00;100021.34;5010454;28;20037;-81
2022/09/13 01:28:22;;;;;;;11.13;5.63;;;;;;;22.33;100.00;100020.13;4990369;28;20248;-82
2022/09/13 01:30:59;;;;;;;8.07;6.38;;;;;;;21.96;100.00;100016.63;4992111;28;20030;-83
2022/09/13 01:33:38;;;;;;;9.10;7.40;;;;;;;21.94;100.00;100011.47;4992203;28;20054;-82
2022/09/13 01:36:31;;;;;;;9.75;6.72;;;;;;;21.98;100.00;100011.91;4992162;28;20030;-82
2022/09/13 01:39:02;;;;;;;9.68;7.32;;;;;;;21.76;100.00;100014.53;5010769;28;20125;-82
2022/09/13 01:41:46;;;;;;;12.20;8.52;;;;;;;21.63;100.00;100018.88;4997486;28;20026;-82
2022/09/13 01:44:31;;;;;;;9.30;8.07;;;;;;;21.75;100.00;100020.06;4992304;28;20521;-82
2022/09/13 01:47:02;;;;;;;12.07;9.23;;;;;;;21.62;100.00;100018.03;4992168;28;20113;-82
2022/09/13 01:49:46;;;;;;;11.93;10.18;;;;;;;21.69;100.00;100015.47;4991986;28;20022;-82
2022/09/13 01:52:30;;;;;;;15.57;10.90;;;;;;;21.25;100.00;100024.28;5002808;28;20384;-82
2022/09/13 01:55:17;;;;;;;14.23;11.95;;;;;;;21.39;100.00;100029.63;5014585;28;20101;-82
2022/09/13 01:57:45;;;;;;;17.20;13.07;;;;;;;21.27;100.00;100025.78;5015188;28;20061;-82
2022/09/13 02:00:14;;;;;;;18.45;14.38;;;;;;;20.99;100.00;100017.53;5015756;28;20544;-82
2022/09/13 02:03:13;;;;;;;17.75;14.23;;;;;;;20.97;100.00;100017.72;5015490;28;20068;-81
2022/09/13 02:05:56;;;;;;;19.27;14.13;;;;;;;20.89;100.00;100011.63;5012863;28;20049;-83
2022/09/13 02:08:41;;;;;;;20.17;14.40;;;;;;;21.05;100.00;100005.28;4995381;28;20543;-81
2022/09/13 02:11:13;;;;;;;16.17;13.90;;;;;;;20.99;100.00;100010.38;4995009;28;20125;-82
2022/09/13 02:13:56;;;;;;;16.98;13.23;;;;;;;21.01;100.00;100007.53;4995427;28;20085;-83
2022/09/13 02:16:39;;;;;;;17.95;14.10;;;;;;;20.70;100.00;100015.63;4994064;28;20397;-81
2022/09/13 02:19:12;;;;;;;23.95;13.77;;;;;;;20.91;100.00;100007.78;4995339;28;20030;-81
2022/09/13 02:21:43;;;;;;;19.92;13.32;;;;;;;20.85;100.00;100010.31;5004142;28;20033;-81
2022/09/13 02:24:16;;;;;;;18.10;11.27;;;;;;;20.82;100.00;100014.19;5015008;28;20021;-82
2022/09/13 02:26:45;;;;;;;15.02;10.80;;;;;;;20.70;100.00;100018.31;5008823;28;20132;-81
2022/09/13 02:29:18;;;;;;;15.13;11.43;;;;;;;20.66;100.00;100025.00;5003958;28;20100;-81
2022/09/13 02:31:53;;;;;;;17.67;12.38;;;;;;;20.56;100.00;100018.03;5014920;28;20049;-82
2022/09/13 02:34:23;;;;;;;14.95;10.63;;;;;;;20.79;100.00;100017.22;5014723;28;20486;-82
2022/09/13 02:36:51;;;;;;;16.58;11.27;;;;;;;20.54;100.00;100028.06;5013959;28;20037;-82
2022/09/13 02:39:22;;;;;;;14.23;10.18;;;;;;;20.76;100.00;100034.41;5014466;28;20041;-82
2022/09/13 02:41:55;;;;;;;18.77;9.82;;;;;;;20.68;100.00;100036.34;4995615;28;20034;-82
2022/09/13 02:44:26;;;;;;;13.30;9.45;;;;;;;20.54;100.00;100030.72;4999707;28;20038;-82
2022/09/13 02:47:12;;;;;;;14.20;10.32;;;;;;;20.95;100.00;100038.44;4994758;28;20031;-82
2022/09/13 02:49:56;;;;;;;13.77;9.93;;;;;;;20.77;100.00;100040.56;4993593;28;20030;-82
2022/09/13 02:52:49;;;;;;;15.70;9.60;;;;;;;20.87;100.00;100035.81;4994462;28;20041;-82
2022/09/13 02:55:22;;;;;;;17.45;10.80;;;;;;;20.83;100.00;100045.19;5000908;28;20048;-81
2022/09/13 02:57:47;;;;;;;13.88;8.93;;;;;;;21.09;100.00;100054.63;5014066;28;20034;-82
2022/09/13 03:00:13;;;;;;;13.63;10.40;;;;;;;20.85;100.00;100061.03;5014370;28;20032;-82
2022/09/13 03:02:41;;;;;;;13.95;9.75;;;;;;;21.09;100.00;100071.50;5012835;28;20058;-82
2022/09/13 03:05:06;;;;;;;9.82;8.15;;;;;;;21.36;100.00;100069.22;5013890;28;20108;-82
2022/09/13 03:07:32;;;;;;;13.35;9.63;;;;;;;21.28;100.00;100086.16;5013879;28;20041;-82
2022/09/13 03:10:06;;;;;;;9.93;7.78;;;;;;;21.37;100.00;100084.25;5006274;28;20023;-82
2022/09/13 03:12:46;;;;;;;14.93;9.07;;;;;;;21.39;100.00;100092.91;4994199;28;20018;-82
2022/09/13 03:15:35;;;;;;;11.70;8.25;;;;;;;21.43;100.00;100083.56;4995312;28;20113;-82
2022/09/13 03:18:22;;;;;;;11.82;9.00;;;;;;;21.30;100.00;100080.63;5013779;28;20591;-82
2022/09/13 03:20:53;;;;;;;12.45;8.85;;;;;;;21.25;100.00;100085.69;5013843;28;20029;-82
2022/09/13 03:23:27;;;;;;;12.35;8.82;;;;;;;21.31;100.00;100082.31;5014035;28;20505;-82
2022/09/13 03:26:06;;;;;;;13.45;8.30;;;;;;;21.11;100.00;100089.97;4996502;28;20042;-82
2022/09/13 03:28:37;;;;;;;12.32;8.93;;;;;;;20.93;100.00;100093.81;4994068;28;20439;-82
2022/09/13 03:31:10;;;;;;;8.60;7.45;;;;;;;21.11;100.00;100100.66;5004091;28;20080;-82
2022/09/13 03:33:48;;;;;;;10.10;7.35;;;;;;;21.13;100.00;100086.16;5013608;28;20026;-82
2022/09/13 03:36:21;;;;;;;10.85;6.45;;;;;;;21.25;100.00;100091.88;5013773;28;20032;-82
2022/09/13 03:39:07;;;;;;;9.57;7.00;;;;;;;20.89;100.00;100097.00;5011304;28;20033;-82
2022/09/13 03:41:40;;;;;;;9.82;5.95;;;;;;;21.16;100.00;100108.97;4993857;28;20435;-82
2022/09/13 03:44:11;;;;;;;7.13;5.38;;;;;;;21.16;100.00;100115.13;4993829;28;20113;-82
2022/09/13 03:46:41;;;;;;;7.45;5.00;;;;;;;21.27;100.00;100126.38;5010293;28;20028;-82
2022/09/13 03:49:14;;;;;;;6.85;6.00;;;;;;;21.18;100.00;100120.28;5013149;28;20380;-82
2022/09/13 03:51:41;;;;;;;11.05;5.50;;;;;;;20.98;100.00;100120.78;5013192;28;20076;-82
2022/09/13 03:54:16;;;;;;;5.70;4.70;;;;;;;21.09;100.00;100114.22;5012354;28;20018;-82
2022/09/13 03:56:42;;;;;;;6.53;5.70;;;;;;;21.15;100.00;100118.00;5013198;28;20030;-82
2022/09/13 03:59:07;;;;;;;8.45;4.38;;;;;;;21.40;100.00;100121.25;5013197;28;20034;-82
2022/09/13 04:01:33;;;;;;;9.82;4.57;;;;;;;21.46;99.81;100127.75;5012855;28;20080;-82
2022/09/13 04:03:58;;;;;;;8.80;5.07;;;;;;;21.32;100.00;100132.84;5012953;28;20037;-82
2022/09/13 04:06:24;;;;;;;7.13;5.00;;;;;;;21.31;100.00;100128.53;5013145;28;20076;-82
2022/09/13 04:08:49;;;;;;;8.73;4.93;;;;;;;20.96;100.00;100125.47;5006418;28;20076;-82
2022/09/13 04:11:15;;;;;;;5.57;4.43;;;;;;;20.98;100.00;100126.13;4993575;28;20506;-81
2022/09/13 04:13:40;;;;;;;11.15;5.35;;;;;;;20.96;100.00;100120.13;4993252;28;20022;-81
2022/09/13 04:16:06;;;;;;;5.55;4.80;;;;;;;20.82;100.00;100128.94;5009672;28;20037;-81
2022/09/13 04:18:32;;;;;;;6.20;4.60;;;;;;;20.89;100.00;100123.69;5012513;28;20458;-81
2022/09/13 04:20:59;;;;;;;9.93;4.45;;;;;;;21.07;99.55;100126.06;5012825;28;20112;-82
2022/09/13 04:23:27;;;;;;;6.10;4.68;;;;;;;20.96;99.26;100122.81;5007304;28;20098;-82
2022/09/13 04:25:52;;;;;;;9.85;3.92;;;;;;;21.02;99.94;100125.78;4992814;28;20108;-82
2022/09/13 04:28:19;;;;;;;8.30;4.20;;;;;;;21.09;98.61;100130.22;4992699;28;20053;-82
2022/09/13 04:30:48;;;;;;;7.07;4.72;;;;;;;21.05;98.74;100125.41;5008082;28;20472;-82
2022/09/13 04:33:16;;;;;;;6.13;3.70;;;;;;;21.06;99.00;100127.09;5012418;28;20034;-82
2022/09/13 04:35:42;;;;;;;5.78;3.67;;;;;;;21.03;99.35;100135.44;5012655;28;20029;-82
2022/09/13 04:38:08;;;;;;;5.18;3.30;;;;;;;21.04;98.64;100126.44;5011704;28;20045;-82
2022/09/13 04:40:34;;;;;;;3.40;3.10;;;;;;;21.00;99.09;100129.44;4992897;28;20031;-82
2022/09/13 04:43:00;;;;;;;8.35;4.30;;;;;;;20.94;99.12;100135.50;4992796;28;20037;-82
2022/09/13 04:45:26;;;;;;;5.07;3.30;;;;;;;20.93;99.44;100133.00;5005555;28;20030;-82
2022/09/13 04:47:52;;;;;;;7.85;3.72;;;;;;;20.80;98.02;100133.63;5012242;28;20029;-82
2022/09/13 04:50:19;;;;;;;6.07;3.17;;;;;;;20.79;98.59;100134.59;5012583;28;20502;-82
2022/09/13 04:52:45;;;;;;;7.68;3.55;;;;;;;20.70;99.38;100125.84;5012388;28;20049;-82
2022/09/13 04:55:11;;;;;;;4.47;3.38;;;;;;;20.57;99.25;100121.03;5011276;28;20056;-82
2022/09/13 04:57:36;;;;;;;9.45;3.40;;;;;;;20.46;98.86;100124.13;5010796;28;20044;-82
2022/09/13 05:00:02;;;;;;;9.25;3.55;;;;;;;20.08;98.65;100115.97;5012000;28;20084;-82
2022/09/13 05:02:28;;;;;;;6.40;3.45;;;;;;;20.35;98.55;100122.69;5012438;28;20030;-82
2022/09/13 05:04:53;;;;;;;9.93;4.20;;;;;;;20.19;98.17;100120.91;5012218;28;20108;-82
2022/09/13 05:07:18;;;;;;;4.80;3.15;;;;;;;19.94;99.71;100119.38;5012043;28;20040;-82
2022/09/13 05:09:44;;;;;;;4.80;2.88;;;;;;;20.22;98.62;100101.06;4994284;28;20117;-82
2022/09/13 05:12:10;;;;;;;9.65;3.40;;;;;;;19.62;99.55;100099.78;4992546;28;20113;-82
2022/09/13 05:14:36;;;;;;;5.78;2.90;;;;;;;19.92;97.83;100100.88;4992335;28;20023;-82
2022/09/13 05:17:01;;;;;;;5.22;2.58;;;;;;;19.94;97.64;100092.72;4992371;28;20165;-82
2022/09/13 05:19:26;;;;;;;8.68;2.95;;;;;;;19.75;97.66;100093.97;4992486;28;20113;-83
2022/09/13 05:21:51;;;;;;;10.55;2.40;;;;;;;19.60;98.95;100112.44;4992417;28;20114;-82
2022/09/13 05:24:17;;;;;;;8.05;2.75;;;;;;;19.74;97.32;100119.75;4991970;28;20027;-82
2022/09/13 05:26:42;;;;;;;4.18;2.20;;;;;;;19.95;97.22;100121.03;4993798;28;20042;-82
2022/09/13 05:29:07;;;;;;;11.57;3.33;;;;;;;19.73;98.05;100123.44;5003959;28;20121;-82
2022/09/13 05:31:38;;;;;;;10.07;2.67;;;;;;;19.85;97.93;100115.09;5015849;28;20037;-82
2022/09/13 05:34:07;;;;;;;10.05;2.60;;;;;;;19.85;97.78;100105.25;5013794;28;20062;-81
2022/09/13 05:36:32;;;;;;;4.68;2.22;;;;;;;19.83;98.25;100104.59;5015076;28;20112;-82
2022/09/13 05:38:59;;;;;;;4.50;2.50;;;;;;;19.75;98.47;100116.09;4999928;28;20092;-82
2022/09/13 05:41:25;;;;;;;6.85;2.25;;;;;;;20.01;97.51;100107.03;4996583;28;20026;-82
2022/09/13 05:43:50;;;;;;;9.13;2.30;;;;;;;19.93;96.27;100107.06;5003181;28;20053;-82
2022/09/13 05:46:21;;;;;;;10.00;2.25;;;;;;;19.79;96.97;100112.09;5015363;28;20484;-81
2022/09/13 05:48:47;;;;;;;4.15;2.30;;;;;;;19.52;96.76;100104.47;5014743;28;20042;-82
2022/09/13 05:51:19;;;;;;;6.00;2.00;;;;;;;19.79;96.12;100111.28;5015559;28;20040;-82
2022/09/13 05:53:47;;;;;;;7.53;2.53;;;;;;;19.86;94.59;100096.25;5014352;28;20507;-81
2022/09/13 05:56:19;;;;;;;6.78;2.50;;;;;;;19.95;94.02;100094.41;5015206;28;20060;-82
2022/09/13 05:58:47;;;;;;;3.75;2.10;;;;;;;19.87;94.71;100097.09;5014648;28;20502;-81
2022/09/13 06:01:13;;;;;;;7.40;2.13;;;;;;;19.77;94.74;100087.47;5015096;28;20034;-82
2022/09/13 06:03:40;;;;;;;5.30;1.90;;;;;;;19.79;94.38;100089.97;5013255;28;20482;-82
2022/09/13 06:06:06;;;;;;;7.00;2.00;;;;;;;19.44;95.45;100086.69;5015128;28;20022;-82
2022/09/13 06:08:33;;;;;;;9.50;1.73;;;;;;;19.84;94.27;100094.75;4998881;28;20512;-82
2022/09/13 06:11:07;;;;;;;6.68;2.00;;;;;;;19.72;93.66;100091.63;4995581;28;20022;-82
2022/09/13 06:13:34;;;;;;;5.32;1.67;;;;;;;19.80;93.58;100105.75;5004401;28;20033;-82
2022/09/13 06:16:01;;;;;;;6.05;2.28;;;;;;;19.76;93.15;100108.94;5014704;28;20036;-82
2022/09/13 06:18:27;;;;;;;7.20;2.10;;;;;;;19.29;94.92;100110.47;5014637;28;20065;-82
2022/09/13 06:21:00;;;;;;;7.07;1.90;;;;;;;19.59;93.37;100102.81;5014805;28;20061;-82
2022/09/13 06:23:26;;;;;;;6.88;2.35;;;;;;;19.57;94.08;100107.47;4997686;28;20031;-82
2022/09/13 06:26:06;;;;;;;9.68;1.85;;;;;;;19.32;95.40;100115.50;5014617;28;20084;-85
2022/09/13 06:28:32;;;;;;;5.78;2.08;;;;;;;19.58;93.15;100103.78;5014279;28;20535;-82
2022/09/13 06:31:12;;;;;;;7.40;1.65;;;;;;;19.65;93.90;100104.78;5005396;28;20037;-83
2022/09/13 06:33:40;;;;;;;8.95;1.92;;;;;;;19.57;93.44;100112.81;5013708;28;20368;-83
2022/09/13 06:36:12;;;;;;;6.30;1.83;;;;;;;19.73;91.08;100106.63;5014691;28;20142;-84
2022/09/13 06:38:38;;;;;;;10.00;1.70;;;;;;;19.73;91.82;100095.97;5013451;28;20041;-83
2022/09/13 06:41:09;;;;;;;8.43;1.50;;;;;;;19.64;91.29;100096.97;5003782;28;20026;-82
2022/09/13 06:43:36;;;;;;;5.03;1.33;;;;;;;19.43;91.30;100106.31;4995754;28;20022;-82
2022/09/13 06:46:05;;;;;;;6.65;1.17;;;;;;;19.64;89.61;100104.94;5013161;28;20037;-83
2022/09/13 06:48:35;;;;;;;13.05;1.80;;;;;;;19.51;90.27;100098.31;5013500;28;20026;-82
2022/09/13 06:51:02;;;;;;;3.47;1.05;;;;;;;19.45;90.69;100100.81;5014433;28;20104;-83
2022/09/13 06:53:28;;;;;;;5.68;1.63;;;;;;;19.44;89.58;100099.16;5003473;28;20034;-83
2022/09/13 06:56:21;;;;;;;5.95;1.40;;;;;;;19.66;89.84;100095.78;5012966;28;20392;-82
2022/09/13 06:58:49;;;;;;;9.27;1.23;;;;;;;19.38;89.36;100092.69;5007484;28;20030;-83
2022/09/13 07:01:26;;;;;;;5.88;1.27;;;;;;;19.63;88.14;100093.47;4993697;28;20492;-82
2022/09/13 07:03:54;;;;;;;3.38;1.20;;;;;;;19.87;87.17;100094.44;4996645;28;20048;-83
2022/09/13 07:06:22;;;;;;;5.10;1.02;;;;;;;19.74;87.68;100101.09;5014491;28;20048;-83
2022/09/13 07:08:49;;;;;;;8.10;1.50;;;;;;;19.51;88.99;100105.47;5013902;28;20034;-82
2022/09/13 07:11:18;;;;;;;5.97;1.10;;;;;;;19.95;86.33;100107.72;5013629;28;20030;-82
2022/09/13 07:13:50;;;;;;;7.28;1.60;;;;;;;20.05;86.72;100100.34;5012361;28;20037;-82
2022/09/13 07:16:17;;;;;;;6.22;1.25;;;;;;;20.05;86.59;100094.19;4994217;28;20030;-83
2022/09/13 07:18:42;;;;;;;3.80;1.15;;;;;;;19.85;86.77;100093.78;4993446;28;20035;-83
2022/09/13 07:21:09;;;;;;;4.45;1.13;;;;;;;19.98;86.53;100083.38;4994122;28;20034;-82
2022/09/13 07:23:37;;;;;;;7.90;1.33;;;;;;;19.58;88.14;100077.97;4994951;28;20027;-83
2022/09/13 07:26:04;;;;;;;5.88;0.95;;;;;;;19.78;86.92;100065.13;5012878;28;20085;-82
2022/09/13 07:28:41;;;;;;;5.82;0.77;;;;;;;19.96;86.29;100064.91;5011903;28;20478;-82
2022/09/13 07:31:21;;;;;;;6.03;0.80;;;;;;;19.65;86.64;100075.50;4994031;28;20050;-83
2022/09/13 07:33:48;;;;;;;5.25;1.25;;;;;;;19.86;85.34;100069.59;4995559;28;20033;-84
2022/09/13 07:36:13;;;;;;;4.45;1.10;;;;;;;20.02;84.29;100092.69;5013501;28;20026;-83
2022/09/13 07:38:41;;;;;;;7.50;0.95;;;;;;;20.14;83.88;100087.78;5013143;28;20034;-82
2022/09/13 07:41:11;;;;;;;4.75;1.15;;;;;;;20.16;83.55;100086.63;5013355;28;20499;-82
2022/09/13 07:43:37;;;;;;;3.25;0.70;;;;;;;19.80;84.53;100086.28;5011898;28;20037;-82
2022/09/13 07:46:11;;;;;;;8.40;1.20;;;;;;;20.10;83.83;100084.66;5013230;28;20026;-82
2022/09/13 07:48:38;;;;;;;3.47;0.55;;;;;;;20.13;84.34;100080.81;5012088;28;20026;-82
2022/09/13 07:51:03;;;;;;;4.78;1.30;;;;;;;20.45;82.02;100089.63;5012547;28;20546;-82
2022/09/13 07:53:30;;;;;;;5.57;0.90;;;;;;;20.48;81.64;100084.78;5013320;28;20038;-83
2022/09/13 07:56:11;;;;;;;7.25;1.50;;;;;;;20.43;80.75;100086.31;5013215;28;20045;-82
2022/09/13 07:58:39;;;;;;;6.95;1.27;;;;;;;20.30;80.04;100084.22;5011713;28;20034;-82
2022/09/13 08:01:11;;;;;;;7.25;1.10;;;;;;;20.67;79.76;100090.69;5012369;28;20149;-83
2022/09/13 08:03:37;;;;;;;5.22;0.80;;;;;;;20.78;79.72;100085.75;5011873;28;20022;-82
2022/09/13 08:06:04;;;;;;;5.72;0.98;;;;;;;20.46;79.21;100086.78;5012824;28;20033;-82
2022/09/13 08:08:30;;;;;;;10.05;1.23;;;;;;;20.47;77.59;100088.44;5012924;28;20030;-83
2022/09/13 08:10:56;;;;;;;8.90;0.93;;;;;;;20.11;80.45;100088.97;4997719;28;20027;-83
2022/09/13 08:13:23;;;;;;;4.15;0.80;;;;;;;20.58;79.01;100089.88;4993081;28;20026;-82
2022/09/13 08:15:48;;;;;;;4.32;1.27;;;;;;;20.48;79.82;100087.44;5000044;28;20017;-82
2022/09/13 08:18:15;;;;;;;6.38;0.80;;;;;;;20.54;79.54;100089.41;5010372;28;20032;-83
2022/09/13 08:20:40;;;;;;;6.20;0.80;;;;;;;20.83;79.99;100082.53;5011554;28;20030;-82
2022/09/13 08:23:07;;;;;;;5.85;1.00;;;;;;;19.73;81.63;100090.66;5005037;28;20034;-82
2022/09/13 08:25:34;;;;;;;4.40;1.05;;;;;;;20.09;80.45;100083.00;4999187;28;20030;-82
2022/09/13 08:28:01;;;;;;;5.20;1.17;;;;;;;20.11;80.10;100086.31;4992673;28;20026;-83
2022/09/13 08:30:32;;;;;;;4.30;0.70;;;;;;;20.55;80.00;100082.22;4993003;28;20134;-82
2022/09/13 08:32:59;;;;;;;8.60;1.10;;;;;;;20.28;78.88;100088.88;4992954;28;20033;-83
2022/09/13 08:35:24;;;;;;;5.15;0.85;;;;;;;19.99;81.73;100085.03;4992739;28;20038;-81
2022/09/13 08:37:50;;;;;;;6.25;0.82;;;;;;;20.34;79.43;100089.03;4992765;28;20038;-83
2022/09/13 08:40:15;;;;;;;7.75;1.02;;;;;;;20.45;79.05;100089.63;5000875;28;20022;-83
2022/09/13 08:43:01;;;;;;;5.13;1.23;;;;;;;20.72;79.14;100089.16;5012250;28;20105;-83
2022/09/13 08:45:27;;;;;;;4.95;0.57;;;;;;;20.62;78.25;100101.91;5011952;28;20095;-83
2022/09/13 08:48:00;;;;;;;6.07;0.93;;;;;;;20.29;78.01;100095.91;5012204;28;20030;-82
2022/09/13 08:50:30;;;;;;;4.45;0.70;;;;;;;20.68;77.46;100109.19;5012219;28;20100;-82
2022/09/13 08:53:26;;;;;;;5.65;1.08;;;;;;;20.76;75.03;100111.78;5012446;28;20030;-83
2022/09/13 08:56:11;;;;;;;3.17;0.60;;;;;;;21.02;74.95;100107.09;5005098;28;20037;-84
2022/09/13 08:59:04;;;;;;;5.07;0.77;;;;;;;20.87;75.72;100107.84;5012268;28;20539;-83
2022/09/13 09:01:32;;;;;;;8.38;1.27;;;;;;;20.50;77.75;100108.63;5011909;28;20105;-83
2022/09/13 09:04:05;;;;;;;8.35;1.27;;;;;;;20.73;76.82;100108.63;5012074;28;20451;-83
2022/09/13 09:06:34;;;;;;;9.43;1.20;;;;;;;20.91;79.46;100111.84;5012279;28;20026;-83
2022/09/13 09:09:05;;;;;;;4.70;0.60;;;;;;;21.37;78.26;100109.09;5008408;28;20392;-83
2022/09/13 09:11:35;;;;;;;5.18;0.85;;;;;;;21.10;76.73;100117.69;5012063;28;20498;-83
2022/09/13 09:14:03;;;;;;;4.07;1.38;;;;;;;21.18;77.91;100109.63;5012224;28;20384;-83
2022/09/13 09:16:34;;;;;;;4.43;0.73;;;;;;;21.10;78.88;100115.03;5011876;28;20594;-83
2022/09/13 09:19:12;;;;;;;5.57;0.88;;;;;;;21.39;79.27;100108.94;5013350;28;20049;-83
2022/09/13 09:21:39;;;;;;;2.45;0.90;;;;;;;21.53;82.51;100110.00;5000395;28;20038;-83
2022/09/13 09:24:06;;;;;;;5.53;0.90;;;;;;;21.44;79.60;100125.25;5011891;28;20038;-83
2022/09/13 09:26:31;;;;;;;4.65;0.82;;;;;;;21.52;79.34;100119.00;5011685;28;20025;-83
2022/09/13 09:28:59;;;;;;;4.80;0.90;;;;;;;21.43;79.96;100122.75;5011595;28;20504;-83
2022/09/13 09:31:49;;;;;;;4.32;1.15;;;;;;;21.25;81.76;100126.59;5012044;28;20045;-83
2022/09/13 09:34:21;;;;;;;4.65;1.80;;;;;;;20.44;81.59;100130.63;5002076;28;20029;-83
2022/09/13 09:36:57;;;;;;;6.18;1.60;;;;;;;21.08;82.33;100133.06;4997874;28;20026;-83
2022/09/13 09:39:31;;;;;;;5.90;1.52;;;;;;;21.27;82.88;100132.56;4997562;28;20040;-83
2022/09/13 09:41:57;;;;;;;6.47;1.70;;;;;;;21.17;80.85;100132.00;4998144;28;20050;-83
2022/09/13 09:44:26;;;;;;;7.32;1.70;;;;;;;21.34;83.04;100132.66;5006684;28;20050;-83
2022/09/13 09:46:59;;;;;;;5.25;1.17;;;;;;;21.05;82.28;100133.41;4993104;28;20419;-83
2022/09/13 09:52:49;;;;;;;3.58;1.15;;;;;;;21.45;81.43;100128.78;4995424;28;20499;-83
2022/09/13 09:55:27;;;;;;;5.10;1.75;;;;;;;21.38;81.81;100137.47;5005670;28;20026;-83
2022/09/13 09:57:54;;;;;;;7.20;1.17;;;;;;;21.36;81.33;100142.16;5006344;28;20057;-83
2022/09/13 10:00:22;;;;;;;6.15;1.15;;;;;;;20.64;82.83;100139.88;4999651;28;20026;-83
2022/09/13 10:02:53;;;;;;;3.63;1.10;;;;;;;20.97;80.43;100136.97;5008246;28;20049;-83
2022/09/13 10:05:21;;;;;;;6.95;1.02;;;;;;;20.94;81.07;100134.69;5009456;28;20034;-83
2022/09/13 10:07:56;;;;;;;6.65;1.10;;;;;;;21.48;82.29;100129.22;5002702;28;20022;-83
2022/09/13 10:10:41;;;;;;;7.18;1.52;;;;;;;21.13;82.36;100130.69;5011609;28;20083;-83
2022/09/13 10:13:13;;;;;;;4.22;0.77;;;;;;;21.42;80.58;100129.09;5013266;28;20026;-81
2022/09/13 10:15:52;;;;;;;5.45;0.88;;;;;;;21.49;81.58;100135.41;5013809;28;20468;-83
2022/09/13 10:18:21;;;;;;;5.97;1.27;;;;;;;21.35;81.42;100129.00;5013462;28;20037;-83
2022/09/13 10:21:22;;;;;;;5.72;1.13;;;;;;;21.82;81.69;100114.53;5009001;28;20034;-83
2022/09/13 10:23:49;;;;;;;6.10;1.30;;;;;;;21.32;84.21;100124.84;5014288;28;20108;-83
2022/09/13 10:26:21;;;;;;;5.53;1.10;;;;;;;21.57;82.72;100120.13;4995083;28;20042;-83
2022/09/13 10:28:58;;;;;;;5.72;1.10;;;;;;;21.58;83.26;100113.78;5006489;28;20030;-83
2022/09/13 10:31:30;;;;;;;5.60;1.45;;;;;;;21.66;84.83;100120.84;5014757;28;20030;-83
2022/09/13 10:34:02;;;;;;;8.43;1.30;;;;;;;21.88;84.89;100112.94;5014519;28;20045;-83
2022/09/13 10:36:31;;;;;;;3.85;0.98;;;;;;;21.76;83.82;100113.41;5004139;28;20077;-83
2022/09/13 10:39:01;;;;;;;5.78;1.40;;;;;;;21.72;83.33;100117.47;5013930;28;20033;-82
2022/09/13 10:41:30;;;;;;;9.02;1.33;;;;;;;21.53;82.28;100110.81;5014821;28;20017;-82
2022/09/13 10:44:03;;;;;;;4.18;1.65;;;;;;;21.48;83.55;100109.69;5014193;28;20021;-83
2022/09/13 10:46:35;;;;;;;7.65;1.52;;;;;;;21.18;82.64;100117.63;5014542;28;20026;-83
2022/09/13 10:49:01;;;;;;;3.92;1.35;;;;;;;21.46;83.99;100119.75;5014428;28;20034;-83
2022/09/13 10:51:26;;;;;;;6.45;1.20;;;;;;;21.71;82.29;100110.44;5013370;28;20048;-83
2022/09/13 10:54:14;;;;;;;4.40;0.93;;;;;;;21.67;83.76;100117.19;5014141;28;20033;-82
2022/09/13 10:56:39;;;;;;;5.95;1.58;;;;;;;21.74;84.35;100112.78;5012737;28;20256;-83
2022/09/13 10:59:24;;;;;;;7.75;2.60;;;;;;;21.81;84.07;100112.03;5011575;28;20188;-82
2022/09/13 11:02:31;;;;;;;2.83;1.17;;;;;;;21.56;84.52;100112.28;4997128;28;20030;-83
2022/09/13 11:05:31;;;;;;;4.85;1.08;;;;;;;21.81;86.05;100118.19;4967597;28;20492;-83
2022/09/13 11:08:17;;;;;;;3.05;1.23;;;;;;;21.65;85.15;100113.88;4998727;28;20025;-83
2022/09/13 11:11:08;;;;;;;5.97;1.30;;;;;;;20.91;87.33;100111.00;5009583;28;20018;-83
2022/09/13 11:13:51;;;;;;;8.33;1.57;;;;;;;21.18;87.22;100117.63;4999358;28;20490;-82
2022/09/13 11:16:39;;;;;;;3.58;1.30;;;;;;;21.29;86.52;100121.72;5004069;28;20066;-82
2022/09/13 11:19:17;;;;;;;6.80;1.15;;;;;;;21.36;85.41;100120.78;5005161;28;20286;-82
2022/09/13 11:22:00;;;;;;;5.70;1.65;;;;;;;21.47;84.39;100119.56;5005744;28;20119;-82
2022/09/13 11:24:44;;;;;;;6.32;1.45;;;;;;;21.34;87.12;100114.78;5000292;28;20069;-82
2022/09/13 11:27:36;;;;;;;8.18;1.67;;;;;;;21.53;86.86;100126.84;5000889;28;20076;-82
2022/09/13 11:30:10;;;;;;;5.63;1.58;;;;;;;21.59;83.80;100126.09;5004409;28;20021;-82
2022/09/13 11:33:14;;;;;;;6.20;1.30;;;;;;;21.32;86.39;100130.19;5002393;28;20041;-82
2022/09/13 11:36:01;;;;;;;5.32;1.30;;;;;;;21.54;87.87;100120.50;5004074;28;20026;-82
2022/09/13 11:38:46;;;;;;;4.25;1.40;;;;;;;21.14;88.03;100119.81;4997612;28;20591;-82
2022/09/13 11:41:38;;;;;;;7.40;1.20;;;;;;;20.95;88.42;100117.66;5006401;28;20106;-83
2022/09/13 11:44:06;;;;;;;6.50;1.58;;;;;;;21.02;89.09;100123.13;4999636;28;20026;-82